Terminal Aerodrome Forecast
Issued by NWS Spokane, WA

Home | Current Version | Previous Version | Text Only | Print | Product List | Glossary On
Versions: 1 2 3 4 5 6 7 8 9 10 11 12 13 14 15 16 17 18 19 20 21 22 23 24 25 26 27 28 29 30 31 32 33 34 35 36 37 38 39 40
000
FTUS46 KOTX 020103 AAB
TAFLWS
TAF AMD
KLWS 020103Z 0201/0224 20016G26KT 5SM -TSRA BKN050CB OVC090
      TEMPO 0201/0202 18025G33KT 1SM +TSRAGS
     FM020200 23006KT P6SM -SHRA VCTS SCT040 BKN060CB OVC100
     FM020500 19007KT P6SM VCSH SCT050 BKN080 OVC100
     FM021300 VRB04KT P6SM VCSH BKN060 BKN100
     FM021800 33007KT P6SM SCT060 BKN120=

USA.gov is the U.S. government's official web portal to all federal, state and local government web resources and services.